Address 0xf474cf03cceff28abc65c9cbae594f725c80e12d

Txn Hash
Block
From
To
Value [Txn Fee]
0x3c31b0cf28438ede601e2178c4764df58e83fa37d0417b0129d75b251a8bc7d081598982021-04-21 1:51:0713 secs ago0xf474cf03cceff28abc65c9cbae594f725c80e12dOUT BSCValidatorSet0.003559006 BNB0
0x278822a05a0c786b8f222ce554881630e00e7595d9e956f50f593e444a9428fc81598872021-04-21 1:50:3446 secs ago0xf474cf03cceff28abc65c9cbae594f725c80e12dOUT BSCValidatorSet0.00197313 BNB0
0x6124ecd739e4adaff20c0137a85e89c7c5ae10081df1c06ce63e6c36fd79581581598762021-04-21 1:50:011 min ago0xf474cf03cceff28abc65c9cbae594f725c80e12dOUT BSCValidatorSet0.00448144 BNB0
0xb60c73ca789034f8bb64de19bfc935278905f5fe6f2c36e5f7ef7c2310240d3981598652021-04-21 1:49:281 min ago0xf474cf03cceff28abc65c9cbae594f725c80e12dOUT BSCValidatorSet0.01101963 BNB0
0xca3d48d9bec3c695426a3fd7a51cb85add6d2311c8e709f582b639bbb16bef9a81598542021-04-21 1:48:552 mins ago0xf474cf03cceff28abc65c9cbae594f725c80e12dOUT BSCValidatorSet0.0015351369 BNB0
0x86df5bf05701e5be65646983cbe40b7256708790613c0cf49248a64a10c55d9e81598432021-04-21 1:48:222 mins ago0xf474cf03cceff28abc65c9cbae594f725c80e12dOUT BSCValidatorSet0.00061049 BNB0
0xfd78153714d037e91e1cb31673cd8752bb84a20d933d243d594b691e77bf482081598322021-04-21 1:47:493 mins ago0xf474cf03cceff28abc65c9cbae594f725c80e12dOUT BSCValidatorSet0.001205776 BNB0
0x9d4d6b5e16a6592fa5b5d6c0bbeb6fa468bd328a0e5ba32a1810c47c4b81ac3881598212021-04-21 1:47:164 mins ago0xf474cf03cceff28abc65c9cbae594f725c80e12dOUT BSCValidatorSet0.00706946 BNB0
0x5f144fb3d892e02867b25a582da1046caa8304694ed7a8b7ff0af7875cdfc12f81598102021-04-21 1:46:434 mins ago0xf474cf03cceff28abc65c9cbae594f725c80e12dOUT BSCValidatorSet0.00176591 BNB0
0x3a12b8110367d177432bcdd95af858f61544907e52b53436e7ae4b9006810f5c81597992021-04-21 1:46:105 mins ago0xf474cf03cceff28abc65c9cbae594f725c80e12dOUT BSCValidatorSet0.00647706 BNB0
0xc40fe24841ea168e96acdb11af6f280322b1f9cdaff8aa12dc7600bc422601b181597882021-04-21 1:45:375 mins ago0xf474cf03cceff28abc65c9cbae594f725c80e12dOUT BSCValidatorSet0.004072464 BNB0
0x5d6a451ba4fdb94f56d30df279c92dff7028812c90e24ddb5d9bd2951b88175781597772021-04-21 1:45:046 mins ago0xf474cf03cceff28abc65c9cbae594f725c80e12dOUT BSCValidatorSet0.00349404 BNB0
0xb4ab019ae36b35049ef28c48a40d24397fb2997afdbfa12b14248336da76d2c781597662021-04-21 1:44:316 mins ago0xf474cf03cceff28abc65c9cbae594f725c80e12dOUT BSCValidatorSet0.0062814737 BNB0
0x2b8bcff21e72fa73a22183c591af3757243af7d00b64ae582efb260e4db54fe581597552021-04-21 1:43:587 mins ago0xf474cf03cceff28abc65c9cbae594f725c80e12dOUT BSCValidatorSet0.00288022 BNB0
0xd247e456f170c97729324f846c987ad5674b0641db7273a94f057ffe5c7bb37a81597442021-04-21 1:43:257 mins ago0xf474cf03cceff28abc65c9cbae594f725c80e12dOUT BSCValidatorSet0.00463096 BNB0
0x551fc75642d9c26b4cd25177b4e4d86255175c6a7778b565108c13c1b400c04381597332021-04-21 1:42:528 mins ago0xf474cf03cceff28abc65c9cbae594f725c80e12dOUT BSCValidatorSet0.0036343 BNB0
0x0ffbbecc4b243bdf384b39d68465b96ac4e435cabc73db8b4ce9cf1d9512c95581597222021-04-21 1:42:199 mins ago0xf474cf03cceff28abc65c9cbae594f725c80e12dOUT BSCValidatorSet0.01791215 BNB0
0x590a3aa7041db2ac5d544fb487d7e68ed78d9af2156f616a0a04b756f8bae48e81597112021-04-21 1:41:469 mins ago0xf474cf03cceff28abc65c9cbae594f725c80e12dOUT BSCValidatorSet0.00116624 BNB0
0x0192be493b2111be387fa90cf70e375dd15010d20f7ea39bfa43443bc0576a3f81597002021-04-21 1:41:1310 mins ago0xf474cf03cceff28abc65c9cbae594f725c80e12dOUT BSCValidatorSet0.02188254 BNB0
0xefd9e93a6fb781f3e8b3b19e113082c2b1d7e5153584164faa3275af5ac5f6c981596892021-04-21 1:40:4010 mins ago0xf474cf03cceff28abc65c9cbae594f725c80e12dOUT BSCValidatorSet0.00023249 BNB0
0x3cc2e6523631a48e319914ffd43cef3df8ebb4286cc4499cec757b1f224956ef81596782021-04-21 1:40:0711 mins ago0xf474cf03cceff28abc65c9cbae594f725c80e12dOUT BSCValidatorSet0.00051178 BNB0
0x46eb6f8b0c9bba9f058b93cb6c54004628f6097e89cd0d493565a70997e1ab0681596672021-04-21 1:39:3411 mins ago0xf474cf03cceff28abc65c9cbae594f725c80e12dOUT BSCValidatorSet0.02353689 BNB0
0xbda6f3dbdf1cd6650c36d8266dff088642695eba6e01b585c3e0e7df2f178ebe81596562021-04-21 1:39:0112 mins ago0xf474cf03cceff28abc65c9cbae594f725c80e12dOUT BSCValidatorSet0.00588482 BNB0
0x168a04c62e66476529ff98c4437e414ae59a57496c4fc486643ca8a98c9c78bf81596452021-04-21 1:38:2812 mins ago0xf474cf03cceff28abc65c9cbae594f725c80e12dOUT BSCValidatorSet0.00285042 BNB0
0x34c1d68bb2711813cfb282974324b1e8d4b84cd211b43b0f7f60fbe1c987885681596342021-04-21 1:37:5513 mins ago0xf474cf03cceff28abc65c9cbae594f725c80e12dOUT BSCValidatorSet0.003144114 BNB0
[ Download CSV Export 
Latest 3 internal transactions
Parent Txn Hash Block From To Value
0x67ce90487625eb00e66fc8d7ebb620413661f905aab1e3a4f7ceaac9c406850881289322021-04-20 0:02:491 day 1 hr ago 0x2a8f98fc343599399e905a0d4697b9ddaa590c1c0xf474cf03cceff28abc65c9cbae594f725c80e12d0.00000481055652 BNB
0x19f62f0733827fec7463d8e602506f5fa0bb7e6682d098484d2d96c00c800ac981287012021-04-19 23:51:161 day 2 hrs ago 0x2a8f98fc343599399e905a0d4697b9ddaa590c1c0xf474cf03cceff28abc65c9cbae594f725c80e12d0.006 BNB
0xe0df9e36711141112145f939c2fa7007090d3189a43e13af59f20fd91baa7bee55547572021-01-20 8:41:0890 days 17 hrs ago TokenHub0xf474cf03cceff28abc65c9cbae594f725c80e12d1 BNB
[ Download CSV Export 
Loading

Contract Name:
0 BNB

Compiler Version
0

Optimization Enabled:
0 BNB

Other Settings:
-NA-

 Latest 25 blocks (From a total of 942,451 blocks with 5,495.40 BNB in fees)

Block Transaction Gas Used Reward
81598982021-04-21 1:51:0713 secs ago5216,434 (0.72%)
0.003559006 BNB
81598872021-04-21 1:50:3446 secs ago3127,431 (0.42%)
0.00197313 BNB
81598762021-04-21 1:50:011 min ago4333,988 (1.11%)
0.00448144 BNB
81598652021-04-21 1:49:281 min ago61,119,113 (3.73%)
0.01101963 BNB
81598542021-04-21 1:48:552 mins ago5141,644 (0.47%)
0.0015351369 BNB
81598432021-04-21 1:48:222 mins ago361,399 (0.20%)
0.00061049 BNB
81598322021-04-21 1:47:493 mins ago4133,545 (0.45%)
0.001205776 BNB
81598212021-04-21 1:47:164 mins ago6691,779 (2.31%)
0.00706946 BNB
81598102021-04-21 1:46:434 mins ago3193,741 (0.65%)
0.00176591 BNB
81597992021-04-21 1:46:105 mins ago4632,235 (2.11%)
0.00647706 BNB
81597882021-04-21 1:45:375 mins ago5239,608 (0.80%)
0.004072464 BNB
81597772021-04-21 1:45:046 mins ago6349,754 (1.17%)
0.00349404 BNB
81597662021-04-21 1:44:316 mins ago8450,938 (1.50%)
0.0062814737 BNB
81597552021-04-21 1:43:587 mins ago3305,172 (1.02%)
0.00288022 BNB
81597442021-04-21 1:43:257 mins ago7336,340 (1.12%)
0.00463096 BNB
81597332021-04-21 1:42:528 mins ago5344,391 (1.15%)
0.0036343 BNB
81597222021-04-21 1:42:199 mins ago4924,382 (3.08%)
0.01791215 BNB
81597112021-04-21 1:41:469 mins ago3133,774 (0.45%)
0.00116624 BNB
81597002021-04-21 1:41:1310 mins ago71,327,977 (4.43%)
0.02188254 BNB
81596892021-04-21 1:40:4010 mins ago240,399 (0.13%)
0.00023249 BNB
81596782021-04-21 1:40:0711 mins ago368,328 (0.23%)
0.00051178 BNB
81596672021-04-21 1:39:3411 mins ago41,210,869 (4.04%)
0.02353689 BNB
81596562021-04-21 1:39:0112 mins ago5457,526 (1.53%)
0.00588482 BNB
81596452021-04-21 1:38:2812 mins ago4269,571 (0.90%)
0.00285042 BNB
81596342021-04-21 1:37:5513 mins ago5302,679 (1.01%)
0.003144114 BNB

 Latest 25 Validator Set (From a total of 375653 validator set)

Age Block Fee Address BC Fee Address Voting Power Jailed Incoming
2021-04-21 1:50:001 min ago81598760xe61a183325a18a173319dd8e19c8d069459e21750xddfcaedf9bb451098c9917a45f02bd61342cca66 263,962.62420556 BNBNo2.4160562968 BNB
2021-04-21 1:49:002 mins ago81598560xe61a183325a18a173319dd8e19c8d069459e21750xddfcaedf9bb451098c9917a45f02bd61342cca66 263,962.62420556 BNBNo2.4115748568 BNB
2021-04-21 1:48:003 mins ago81598360xe61a183325a18a173319dd8e19c8d069459e21750xddfcaedf9bb451098c9917a45f02bd61342cca66 263,962.62420556 BNBNo2.3990200899 BNB
2021-04-21 1:47:004 mins ago81598160xe61a183325a18a173319dd8e19c8d069459e21750xddfcaedf9bb451098c9917a45f02bd61342cca66 263,962.62420556 BNBNo2.3972038239 BNB
2021-04-21 1:46:005 mins ago81597960xe61a183325a18a173319dd8e19c8d069459e21750xddfcaedf9bb451098c9917a45f02bd61342cca66 263,962.62420556 BNBNo2.3883684539 BNB
2021-04-21 1:45:006 mins ago81597760xe61a183325a18a173319dd8e19c8d069459e21750xddfcaedf9bb451098c9917a45f02bd61342cca66 263,962.62420556 BNBNo2.3778189299 BNB
2021-04-21 1:44:007 mins ago81597560xe61a183325a18a173319dd8e19c8d069459e21750xddfcaedf9bb451098c9917a45f02bd61342cca66 263,962.62420556 BNBNo2.3680434162 BNB
2021-04-21 1:43:008 mins ago81597360xe61a183325a18a173319dd8e19c8d069459e21750xddfcaedf9bb451098c9917a45f02bd61342cca66 263,962.62420556 BNBNo2.3651631962 BNB
2021-04-21 1:42:009 mins ago81597160xe61a183325a18a173319dd8e19c8d069459e21750xddfcaedf9bb451098c9917a45f02bd61342cca66 263,962.62420556 BNBNo2.3568979362 BNB
2021-04-21 1:41:0010 mins ago81596960xe61a183325a18a173319dd8e19c8d069459e21750xddfcaedf9bb451098c9917a45f02bd61342cca66 263,962.62420556 BNBNo2.3378195462 BNB
2021-04-21 1:40:0011 mins ago81596760xe61a183325a18a173319dd8e19c8d069459e21750xddfcaedf9bb451098c9917a45f02bd61342cca66 263,962.62420556 BNBNo2.3157045162 BNB
2021-04-21 1:39:0012 mins ago81596560xe61a183325a18a173319dd8e19c8d069459e21750xddfcaedf9bb451098c9917a45f02bd61342cca66 263,962.62420556 BNBNo2.2916558462 BNB
2021-04-21 1:38:0013 mins ago81596360xe61a183325a18a173319dd8e19c8d069459e21750xddfcaedf9bb451098c9917a45f02bd61342cca66 263,962.62420556 BNBNo2.2829206062 BNB
2021-04-21 1:37:0014 mins ago81596160xe61a183325a18a173319dd8e19c8d069459e21750xddfcaedf9bb451098c9917a45f02bd61342cca66 263,962.62420556 BNBNo2.2780177622 BNB
2021-04-21 1:36:0015 mins ago81595960xe61a183325a18a173319dd8e19c8d069459e21750xddfcaedf9bb451098c9917a45f02bd61342cca66 263,962.62420556 BNBNo2.2766722722 BNB
2021-04-21 1:35:0016 mins ago81595760xe61a183325a18a173319dd8e19c8d069459e21750xddfcaedf9bb451098c9917a45f02bd61342cca66 263,962.62420556 BNBNo2.2755772922 BNB
2021-04-21 1:34:0017 mins ago81595560xe61a183325a18a173319dd8e19c8d069459e21750xddfcaedf9bb451098c9917a45f02bd61342cca66 263,962.62420556 BNBNo2.2732183022 BNB
2021-04-21 1:33:0018 mins ago81595360xe61a183325a18a173319dd8e19c8d069459e21750xddfcaedf9bb451098c9917a45f02bd61342cca66 263,962.62420556 BNBNo2.2661853722 BNB
2021-04-21 1:32:0019 mins ago81595160xe61a183325a18a173319dd8e19c8d069459e21750xddfcaedf9bb451098c9917a45f02bd61342cca66 263,962.62420556 BNBNo2.2106963722 BNB
2021-04-21 1:31:0020 mins ago81594960xe61a183325a18a173319dd8e19c8d069459e21750xddfcaedf9bb451098c9917a45f02bd61342cca66 263,962.62420556 BNBNo2.2087772522 BNB
2021-04-21 1:30:0021 mins ago81594760xe61a183325a18a173319dd8e19c8d069459e21750xddfcaedf9bb451098c9917a45f02bd61342cca66 263,962.62420556 BNBNo2.0950425785 BNB
2021-04-21 1:29:0022 mins ago81594560xe61a183325a18a173319dd8e19c8d069459e21750xddfcaedf9bb451098c9917a45f02bd61342cca66 263,962.62420556 BNBNo2.0551918585 BNB
2021-04-21 1:28:0023 mins ago81594360xe61a183325a18a173319dd8e19c8d069459e21750xddfcaedf9bb451098c9917a45f02bd61342cca66 263,962.62420556 BNBNo2.0369258776 BNB
2021-04-21 1:27:0024 mins ago81594160xe61a183325a18a173319dd8e19c8d069459e21750xddfcaedf9bb451098c9917a45f02bd61342cca66 263,962.62420556 BNBNo2.0271158976 BNB
2021-04-21 1:26:0025 mins ago81593960xe61a183325a18a173319dd8e19c8d069459e21750xddfcaedf9bb451098c9917a45f02bd61342cca66 263,962.62420556 BNBNo2.0268834076 BNB
Block Uncle Number Difficulty Gas Used Reward
Loading